Portada
METAR-TAF:

METAR-TAF

Aeroports :

Asunción, Paraguai

latitud: 25-16S, longitud: 057-38W, altitud: 101 m

Observació

L'informe es va fer fa 35 minuts, a les 07:00 UTC
Vent 3 kt amb direcció variable
Temperatura 22°C
Humitat 83%
Pressió 1012 hPa
Visibilitat: 9000 m

METAR: SGAS 250700Z VRB03KT 9000 NSC 22/19 Q1012

Hora: 04:35 (07:35 UTC)

Pronòstic

L'informe es va fer fa 2 hores i 35 minuts, a les 05:00 UTC
Pronòstic vàlid del 25 a les 06 UTC al 26 a les 06 UTC
Vent 3 kt amb direcció variable
Visibilitat 10 km o més
sense núvols per sota de 1500 mi sense presència de cumulonimbus.

TAF: SGAS 250500Z 2506/2606 VRB03KT CAVOK TX35/2518Z TN22/2509Z

Observacions i pronòstics meteorològics de més de 4000 aeroports (METAR i TAF).

Les estacions disponibles són els punts grocs i vermells al mapa.

Posi el ratolí al punt desitjat per veure el nom de l'estació.

Feu clic per veure les observacions i els pronòstics meteorològics.

Per canviar el mapa: feu clic els botons verds amb una creu de color negre per apropar; al botó verd amb un guió per allunyar la imatge; o en les fletxes verdes per a mapes adjacents.


METAR-TAF: